Главная страница
METAR-TAF:

METAR-TAF

Аэропорты :

Шлeзвиг-Jagel, Германия

широта: 54-28N, долгота: 009-31E, высота над уровнем моря: 22 м

Текущие метеонаблюдения

Эта сводка был подготовлена 1 час и 2 минут назад, в 00:20 UTC
Ветер 18 Узел от юго-западный
Температура 5°C
Влажность 93%
Давление 1011 hPa
Видимость: 6000 м

METAR: ETNS 250020Z AUTO 23018KT 6000 // ////// 05/04 Q1011 ///

Время: 02:22 (01:22 UTC)


TAF: отсутствует

Метеонаблюдения и прогнозы для более 4000 аэропортов (сводки METAR и TAF).

Имеющиеся станции представлены на карте желтыми и красными точками.

Чтобы увидеть название станции, наведите на нее мышь.

Затем щелкните, чтобы увидеть метеонаблюдения и метеопрогнозы.

Управление картой: чтобы увеличить масштаб, щелкните зеленые кнопки с черным крестиком; чтобы уменьшить масштаб, щелкните зеленую кнопку с тире; для просмотра соседних карт щелкайте зеленые стрелки.


METAR-TAF: